Terminal Aerodrome Forecast
Issued by NWS Upton, NY

Home | Current Version | Previous Version | Text Only | Print | Product List | Glossary On
Versions: 1 2 3 4 5 6 7 8 9 10 11 12 13 14 15 16 17 18 19 20 21 22 23 24 25 26
000
FTUS41 KOKX 020800 AAA
TAFBDR
TAF AMD
KBDR 020840Z 0209/0306 09006KT P6SM SCT050 BKN150
     FM020900 09007KT 6SM -RA FEW008 SCT030 OVC050
     FM021100 08012KT 5SM -RA BR SCT015 OVC030
     FM021800 08012KT P6SM BKN030
     FM022200 08008KT P6SM BKN035
     FM030100 05005KT P6SM OVC035=

USA.gov is the U.S. government's official web portal to all federal, state and local government web resources and services.